Time;durP1;ratioP1;P1;durP2;ratioP2;P2;SDS_P1;SDS_P2;PMS_P1;PMS_P2;Temp;Humidity;BMP_temperature;BMP_pressure;BME280_temperature;BME280_humidity;BME280_pressure;Samples;Min_cycle;Max_cycle;Signal;HPM_P1;HPM_P2
2023/09/16 00:00:34;;;;;;;7.43;5.93;;;17.70;99.90;;;;;;5042528;28;20239;-61
2023/09/16 00:03:01;;;;;;;6.03;5.50;;;17.60;99.90;;;;;;5044972;28;20212;-61
2023/09/16 00:05:28;;;;;;;6.82;6.10;;;17.70;99.90;;;;;;5044645;28;20206;-61
2023/09/16 00:07:56;;;;;;;6.75;6.15;;;17.70;99.90;;;;;;5041453;28;20237;-61
2023/09/16 00:10:23;;;;;;;6.88;5.63;;;17.60;99.90;;;;;;5041487;28;20258;-61
2023/09/16 00:12:49;;;;;;;8.35;6.03;;;17.60;99.90;;;;;;5044631;28;20205;-61
2023/09/16 00:15:16;;;;;;;7.18;6.53;;;17.70;99.90;;;;;;5044802;28;20205;-60
2023/09/16 00:17:43;;;;;;;9.95;5.88;;;17.50;99.90;;;;;;5042582;28;20230;-61
2023/09/16 00:20:14;;;;;;;7.13;6.28;;;17.50;99.90;;;;;;5041637;28;20206;-61
2023/09/16 00:22:42;;;;;;;6.80;6.10;;;17.50;99.90;;;;;;5042971;28;20238;-61
2023/09/16 00:25:11;;;;;;;6.20;5.65;;;17.40;99.90;;;;;;5044623;28;20210;-60
2023/09/16 00:27:39;;;;;;;6.75;6.05;;;17.50;99.90;;;;;;5042614;28;20769;-60
2023/09/16 00:30:07;;;;;;;6.40;5.80;;;17.50;99.90;;;;;;5040968;28;20702;-61
2023/09/16 00:32:34;;;;;;;6.43;5.82;;;17.40;99.90;;;;;;5041876;28;20210;-60
2023/09/16 00:35:01;;;;;;;7.93;6.15;;;17.40;99.90;;;;;;5044048;28;20205;-61
2023/09/16 00:37:28;;;;;;;6.35;5.70;;;17.30;99.90;;;;;;5044631;28;20218;-61
2023/09/16 00:39:55;;;;;;;6.93;5.65;;;17.10;99.90;;;;;;5041204;28;20664;-60
2023/09/16 00:42:23;;;;;;;6.40;5.80;;;17.10;99.90;;;;;;5040873;28;20587;-61
2023/09/16 00:44:50;;;;;;;7.10;5.55;;;17.20;99.90;;;;;;5043669;28;20202;-60
2023/09/16 00:47:17;;;;;;;6.38;5.78;;;17.30;99.90;;;;;;5043300;28;20276;-61
2023/09/16 00:49:44;;;;;;;7.20;6.40;;;17.30;99.90;;;;;;5042359;28;20292;-61
2023/09/16 00:52:11;;;;;;;6.10;5.40;;;17.40;99.90;;;;;;5040917;28;20699;-61
2023/09/16 00:54:38;;;;;;;7.15;5.88;;;17.40;99.90;;;;;;5042131;28;20206;-61
2023/09/16 00:57:11;;;;;;;8.25;6.25;;;17.50;99.90;;;;;;5044012;28;20249;-61
2023/09/16 00:59:39;;;;;;;6.15;5.55;;;17.50;99.90;;;;;;5043268;28;20222;-61
2023/09/16 01:02:09;;;;;;;6.78;5.65;;;17.50;99.90;;;;;;5040800;28;20635;-61
2023/09/16 01:04:35;;;;;;;5.88;5.25;;;17.50;99.90;;;;;;5040954;28;20203;-61
2023/09/16 01:07:03;;;;;;;9.18;6.00;;;17.50;99.90;;;;;;5043775;28;20226;-60
2023/09/16 01:09:30;;;;;;;6.18;5.57;;;17.50;99.90;;;;;;5043684;28;20255;-60
2023/09/16 01:11:57;;;;;;;6.70;6.00;;;17.50;99.90;;;;;;5040036;28;20676;-60
2023/09/16 01:14:24;;;;;;;14.40;12.93;;;17.40;99.90;;;;;;5040173;28;20229;-60
2023/09/16 01:16:59;;;;;;;8.77;7.63;;;17.40;99.90;;;;;;5042819;28;20222;-60
2023/09/16 01:19:45;;;;;;;7.18;6.18;;;17.40;99.90;;;;;;5043621;28;20213;-60
2023/09/16 01:22:12;;;;;;;6.85;6.00;;;17.30;99.90;;;;;;5040374;28;20210;-60
2023/09/16 01:24:40;;;;;;;7.13;6.05;;;17.30;99.90;;;;;;5041021;28;20202;-60
2023/09/16 01:27:08;;;;;;;5.85;5.20;;;17.30;99.90;;;;;;5043490;28;20295;-61
2023/09/16 01:29:35;;;;;;;7.13;6.18;;;17.30;99.90;;;;;;5042361;28;20214;-61
2023/09/16 01:32:06;;;;;;;7.10;5.93;;;17.20;99.90;;;;;;5039911;28;20210;-61
2023/09/16 01:34:40;;;;;;;6.28;5.45;;;17.20;99.90;;;;;;5039949;28;20217;-61
2023/09/16 01:37:13;;;;;;;8.30;5.38;;;17.20;99.90;;;;;;5043189;28;20229;-61
2023/09/16 01:39:41;;;;;;;7.38;5.38;;;17.10;99.90;;;;;;5041408;28;20206;-61
2023/09/16 01:42:10;;;;;;;6.50;5.90;;;17.00;99.90;;;;;;5039700;28;20206;-61
2023/09/16 01:44:36;;;;;;;6.97;5.30;;;16.90;99.90;;;;;;5040374;28;20206;-61
2023/09/16 01:47:05;;;;;;;6.20;5.60;;;16.90;99.90;;;;;;5058892;22;20664;-55
2023/09/16 01:49:32;;;;;;;6.95;5.63;;;16.90;99.90;;;;;;5062137;28;20595;-57
2023/09/16 01:51:58;;;;;;;7.03;5.70;;;16.80;99.90;;;;;;5062798;28;20205;-56
2023/09/16 01:54:25;;;;;;;6.22;5.60;;;16.80;99.90;;;;;;5062608;28;20201;-55
2023/09/16 01:56:52;;;;;;;6.20;5.60;;;16.80;99.90;;;;;;5062589;28;20270;-57
2023/09/16 01:59:20;;;;;;;6.45;5.55;;;16.80;99.90;;;;;;5062975;28;20215;-56
2023/09/16 02:01:47;;;;;;;6.47;5.53;;;16.80;99.90;;;;;;5060279;28;20209;-56
2023/09/16 02:04:14;;;;;;;6.03;5.43;;;16.70;99.90;;;;;;5059189;28;20212;-55
2023/09/16 02:06:41;;;;;;;6.43;5.40;;;16.70;99.90;;;;;;5060583;28;20229;-56
2023/09/16 02:09:08;;;;;;;5.88;5.38;;;16.70;99.90;;;;;;5063215;28;20225;-55
2023/09/16 02:11:36;;;;;;;7.45;5.65;;;16.70;99.90;;;;;;5062056;28;20205;-56
2023/09/16 02:14:04;;;;;;;9.00;5.63;;;16.70;99.90;;;;;;5059184;28;20239;-57
2023/09/16 02:16:32;;;;;;;6.38;5.65;;;16.70;99.90;;;;;;5059149;28;20288;-56
2023/09/16 02:18:59;;;;;;;6.30;5.70;;;16.70;99.90;;;;;;5062645;28;20224;-55
2023/09/16 02:21:26;;;;;;;5.97;5.45;;;16.70;99.90;;;;;;5062259;28;20215;-56
2023/09/16 02:23:53;;;;;;;8.55;5.50;;;16.70;99.90;;;;;;5059196;28;20206;-56
2023/09/16 02:26:19;;;;;;;6.20;5.60;;;16.70;99.90;;;;;;5059228;28;20209;-56
2023/09/16 02:28:46;;;;;;;6.15;5.55;;;16.60;99.90;;;;;;5061213;28;20650;-55
2023/09/16 02:31:13;;;;;;;6.40;5.65;;;16.70;99.90;;;;;;5062439;28;20209;-56
2023/09/16 02:33:41;;;;;;;7.18;5.30;;;16.70;99.90;;;;;;5060873;28;20209;-55
2023/09/16 02:36:08;;;;;;;6.55;5.68;;;16.60;99.90;;;;;;5058821;28;20213;-56
2023/09/16 02:38:35;;;;;;;7.47;5.65;;;16.60;99.90;;;;;;5059378;28;20221;-56
2023/09/16 02:41:03;;;;;;;6.10;5.50;;;16.50;99.90;;;;;;5062071;28;20632;-56
2023/09/16 02:43:30;;;;;;;6.60;5.93;;;16.50;99.90;;;;;;5061994;28;20627;-56
2023/09/16 02:45:57;;;;;;;8.30;5.97;;;16.50;99.90;;;;;;5050563;28;20212;-57
2023/09/16 02:48:24;;;;;;;7.38;5.55;;;16.60;99.90;;;;;;5058648;28;20282;-56
2023/09/16 02:50:52;;;;;;;8.50;5.75;;;16.60;99.90;;;;;;5061161;28;20205;-56
2023/09/16 02:53:18;;;;;;;7.97;5.80;;;16.60;99.90;;;;;;5061758;28;20207;-55
2023/09/16 02:55:45;;;;;;;7.72;6.57;;;16.60;99.90;;;;;;5059897;28;20208;-56
2023/09/16 02:58:12;;;;;;;6.93;6.22;;;16.60;99.90;;;;;;5058591;28;20225;-55
2023/09/16 03:00:38;;;;;;;6.72;6.13;;;16.50;99.90;;;;;;5059349;28;20734;-55
2023/09/16 03:03:05;;;;;;;5.90;5.40;;;16.50;99.90;;;;;;5061623;28;20685;-54
2023/09/16 03:05:32;;;;;;;6.68;5.85;;;16.60;99.90;;;;;;5061656;28;20212;-56
2023/09/16 03:08:00;;;;;;;6.88;5.35;;;16.50;99.90;;;;;;5058354;28;20222;-55
2023/09/16 03:10:27;;;;;;;6.43;5.65;;;16.50;99.90;;;;;;5059581;28;20216;-55
2023/09/16 03:12:53;;;;;;;5.93;5.43;;;16.40;99.90;;;;;;5064907;28;20197;-56
2023/09/16 03:15:20;;;;;;;6.15;5.43;;;16.30;99.90;;;;;;5065135;28;20200;-55
2023/09/16 03:17:47;;;;;;;6.20;5.60;;;16.40;99.90;;;;;;5063258;28;20221;-55
2023/09/16 03:20:14;;;;;;;8.55;5.72;;;16.30;99.90;;;;;;5062322;28;20213;-55
2023/09/16 03:22:40;;;;;;;6.93;5.22;;;16.30;99.90;;;;;;5062887;28;20216;-55
2023/09/16 03:25:09;;;;;;;5.88;5.28;;;16.20;99.90;;;;;;5065772;28;20205;-55
2023/09/16 03:27:36;;;;;;;5.85;5.18;;;16.20;99.90;;;;;;5064722;28;20602;-55
2023/09/16 03:30:03;;;;;;;6.03;5.43;;;16.10;99.90;;;;;;5061899;28;20247;-55
2023/09/16 03:32:30;;;;;;;5.60;5.10;;;16.00;99.90;;;;;;5061830;28;20206;-56
2023/09/16 03:34:56;;;;;;;6.77;5.00;;;16.00;99.90;;;;;;5064757;28;20209;-55
2023/09/16 03:37:23;;;;;;;5.65;5.07;;;16.00;99.90;;;;;;5065253;28;20233;-55
2023/09/16 03:39:50;;;;;;;6.57;5.30;;;15.90;99.90;;;;;;5062922;28;20212;-55
2023/09/16 03:42:18;;;;;;;7.18;5.72;;;15.90;99.90;;;;;;5061723;28;20619;-55
2023/09/16 03:44:45;;;;;;;6.30;5.70;;;15.90;99.90;;;;;;5062912;28;20258;-55
2023/09/16 03:47:12;;;;;;;6.80;5.50;;;15.80;99.90;;;;;;5065067;28;20236;-55
2023/09/16 03:49:38;;;;;;;6.28;5.68;;;15.80;99.90;;;;;;5064401;28;20208;-55
2023/09/16 03:52:05;;;;;;;6.20;5.60;;;15.80;99.90;;;;;;5061973;28;20206;-55
2023/09/16 03:54:32;;;;;;;6.30;5.70;;;15.80;99.90;;;;;;5061386;28;20205;-57
2023/09/16 03:56:59;;;;;;;6.20;5.60;;;15.80;99.90;;;;;;5061450;28;20671;-55
2023/09/16 03:59:27;;;;;;;5.77;5.27;;;15.80;99.90;;;;;;5061321;28;20201;-55
2023/09/16 04:01:54;;;;;;;6.23;5.63;;;15.70;99.90;;;;;;5064286;28;20220;-55
2023/09/16 04:04:20;;;;;;;6.53;5.93;;;15.60;99.90;;;;;;5064585;28;20205;-56
2023/09/16 04:06:47;;;;;;;7.60;6.00;;;15.60;99.90;;;;;;5062650;28;20224;-55
2023/09/16 04:09:16;;;;;;;6.40;5.50;;;15.70;99.90;;;;;;5061250;28;20233;-55
2023/09/16 04:11:42;;;;;;;6.22;5.63;;;16.30;99.90;;;;;;5062082;28;20213;-55
2023/09/16 04:14:09;;;;;;;6.53;5.60;;;15.60;99.90;;;;;;5064413;28;20701;-56
2023/09/16 04:16:39;;;;;;;6.38;5.68;;;15.60;99.90;;;;;;5064277;28;20212;-55
2023/09/16 04:19:06;;;;;;;6.50;5.90;;;15.50;99.90;;;;;;5060905;28;20790;-55
2023/09/16 04:21:32;;;;;;;9.90;6.60;;;15.60;99.90;;;;;;5060143;28;20209;-56
2023/09/16 04:23:59;;;;;;;6.60;5.90;;;15.50;99.90;;;;;;5063698;28;20670;-56
2023/09/16 04:26:26;;;;;;;5.83;5.23;;;15.60;99.90;;;;;;5064363;28;20232;-55
2023/09/16 04:28:52;;;;;;;7.20;5.97;;;15.60;99.90;;;;;;5061772;28;20232;-55
2023/09/16 04:31:19;;;;;;;6.43;5.78;;;15.50;99.90;;;;;;5061024;28;20229;-56
2023/09/16 04:33:48;;;;;;;6.40;5.77;;;15.50;99.90;;;;;;5061951;28;20213;-56
2023/09/16 04:36:15;;;;;;;7.87;6.40;;;15.50;99.90;;;;;;5064338;28;20204;-55
2023/09/16 04:38:41;;;;;;;5.82;5.32;;;15.60;99.90;;;;;;5063239;28;20601;-56
2023/09/16 04:41:08;;;;;;;7.18;6.25;;;15.60;99.90;;;;;;5060446;28;20217;-55
2023/09/16 04:43:35;;;;;;;7.28;6.07;;;15.60;99.90;;;;;;5060248;28;20630;-55
2023/09/16 04:46:02;;;;;;;8.73;6.63;;;15.70;99.90;;;;;;5052249;28;20668;-56
2023/09/16 04:48:30;;;;;;;10.30;6.57;;;15.70;99.90;;;;;;5060008;28;20694;-55
2023/09/16 04:50:59;;;;;;;8.13;6.45;;;15.70;99.90;;;;;;5063310;28;20197;-55
2023/09/16 04:53:25;;;;;;;7.70;7.00;;;15.80;99.90;;;;;;5063504;28;20598;-58
2023/09/16 04:56:00;;;;;;;7.75;6.95;;;15.80;99.90;;;;;;5061479;28;20689;-56
2023/09/16 04:58:26;;;;;;;7.75;6.95;;;15.90;99.90;;;;;;5060224;28;20298;-55
2023/09/16 05:00:53;;;;;;;7.80;6.97;;;15.90;99.90;;;;;;5062634;28;20213;-55
2023/09/16 05:03:20;;;;;;;7.15;6.45;;;15.70;99.90;;;;;;5063462;28;20206;-56
2023/09/16 05:05:47;;;;;;;6.45;5.85;;;15.70;99.90;;;;;;5062167;28;20205;-56
2023/09/16 05:08:15;;;;;;;7.30;5.95;;;15.70;99.90;;;;;;5060238;28;20245;-57
2023/09/16 05:10:42;;;;;;;8.07;6.67;;;15.70;99.90;;;;;;5061044;28;20206;-57
2023/09/16 05:13:08;;;;;;;7.18;6.47;;;15.80;99.90;;;;;;5063175;28;20209;-56
2023/09/16 05:15:35;;;;;;;7.60;6.80;;;15.80;99.90;;;;;;5063372;28;20204;-56
2023/09/16 05:18:02;;;;;;;9.02;5.85;;;15.80;99.90;;;;;;5051698;28;20233;-58
2023/09/16 05:20:29;;;;;;;6.47;5.68;;;15.80;99.90;;;;;;5059698;28;20213;-56
2023/09/16 05:22:55;;;;;;;6.35;5.78;;;15.80;99.90;;;;;;5062486;28;20581;-55
2023/09/16 05:25:23;;;;;;;6.77;6.10;;;15.60;99.90;;;;;;5063064;28;20213;-58
2023/09/16 05:27:50;;;;;;;6.73;6.07;;;15.50;99.90;;;;;;5060886;28;20575;-57
2023/09/16 05:30:17;;;;;;;7.22;6.45;;;15.50;99.90;;;;;;5059709;28;20212;-56
2023/09/16 05:32:43;;;;;;;7.30;6.43;;;15.60;99.90;;;;;;5060035;28;20209;-55
2023/09/16 05:35:10;;;;;;;8.33;6.70;;;15.70;99.90;;;;;;5062789;28;20209;-55
2023/09/16 05:37:37;;;;;;;7.30;6.60;;;15.90;99.90;;;;;;5062984;28;20223;-56
2023/09/16 05:40:04;;;;;;;7.82;7.13;;;16.00;99.90;;;;;;5059389;28;20671;-55
2023/09/16 05:42:32;;;;;;;10.02;7.63;;;16.10;99.90;;;;;;5059250;28;20209;-55
2023/09/16 05:45:00;;;;;;;9.07;7.38;;;16.20;99.90;;;;;;5062352;28;20207;-55
2023/09/16 05:47:29;;;;;;;8.63;7.75;;;16.20;99.90;;;;;;5062678;28;20260;-56
2023/09/16 05:49:56;;;;;;;8.10;7.07;;;16.30;99.90;;;;;;5060023;28;20212;-55
2023/09/16 05:52:23;;;;;;;7.47;6.65;;;16.20;99.90;;;;;;5059336;28;20209;-57
2023/09/16 05:54:49;;;;;;;8.10;7.30;;;16.40;99.90;;;;;;5060775;28;20202;-55
2023/09/16 05:57:16;;;;;;;6.75;6.13;;;16.40;99.90;;;;;;5062672;28;20221;-55
2023/09/16 05:59:44;;;;;;;6.55;5.95;;;16.50;99.90;;;;;;5061871;28;20201;-56
2023/09/16 06:02:11;;;;;;;7.85;6.00;;;16.70;99.90;;;;;;5059212;28;20602;-56
2023/09/16 06:04:38;;;;;;;6.22;5.10;;;17.50;99.90;;;;;;5059183;28;20212;-56
2023/09/16 06:07:05;;;;;;;6.85;4.70;;;18.60;99.90;;;;;;5062706;28;20208;-56
2023/09/16 06:09:32;;;;;;;5.72;4.80;;;19.80;99.90;;;;;;5062937;28;20720;-56
2023/09/16 06:11:58;;;;;;;4.57;4.13;;;20.90;99.90;;;;;;5059673;28;20697;-55
2023/09/16 06:14:25;;;;;;;5.05;4.35;;;21.80;99.90;;;;;;5058953;28;20206;-57
2023/09/16 06:16:53;;;;;;;5.32;4.45;;;22.90;99.90;;;;;;5060805;28;20206;-56
2023/09/16 06:19:20;;;;;;;5.55;3.88;;;23.90;99.90;;;;;;5062862;28;20229;-56
2023/09/16 06:21:47;;;;;;;3.70;3.40;;;24.80;99.90;;;;;;5061395;28;20216;-57
2023/09/16 06:24:13;;;;;;;4.07;3.78;;;25.70;99.90;;;;;;5058719;28;20212;-56
2023/09/16 06:26:40;;;;;;;4.40;3.95;;;26.70;99.90;;;;;;5059257;28;20210;-57
2023/09/16 06:29:07;;;;;;;4.10;3.70;;;27.60;99.90;;;;;;5062421;28;20229;-56
2023/09/16 06:31:33;;;;;;;4.32;3.92;;;28.50;99.90;;;;;;5062301;28;20208;-56
2023/09/16 06:34:02;;;;;;;5.22;3.83;;;29.10;99.90;;;;;;5059224;28;20586;-56
2023/09/16 06:36:29;;;;;;;4.30;3.90;;;29.20;99.90;;;;;;5059099;28;20206;-56
2023/09/16 06:38:55;;;;;;;4.47;4.07;;;29.10;99.90;;;;;;5061235;28;20232;-57
2023/09/16 06:41:22;;;;;;;6.10;3.97;;;29.10;99.90;;;;;;5062341;28;20211;-57
2023/09/16 06:43:49;;;;;;;5.70;4.00;;;28.90;99.90;;;;;;5060613;28;20201;-56
2023/09/16 06:46:16;;;;;;;4.47;3.60;;;28.80;99.90;;;;;;5061599;28;20213;-56
2023/09/16 06:48:45;;;;;;;4.45;3.53;;;28.70;99.90;;;;;;5063313;28;20256;-56
2023/09/16 06:51:13;;;;;;;4.95;4.00;;;28.40;99.90;;;;;;5066378;28;20267;-57
2023/09/16 06:53:40;;;;;;;5.65;4.18;;;28.40;99.90;;;;;;5065990;28;20217;-59
2023/09/16 06:56:06;;;;;;;5.20;4.03;;;28.80;99.90;;;;;;5062800;28;20213;-56
2023/09/16 06:58:33;;;;;;;8.40;3.92;;;29.60;99.90;;;;;;5062435;28;20228;-56
2023/09/16 07:01:08;;;;;;;5.20;3.85;;;30.50;99.90;;;;;;5065481;28;20243;-56
2023/09/16 07:03:35;;;;;;;4.95;3.60;;;31.40;99.90;;;;;;5065901;28;20236;-56
2023/09/16 07:06:01;;;;;;;5.13;3.63;;;32.00;99.90;;;;;;5062783;28;20326;-56
2023/09/16 07:08:30;;;;;;;5.35;4.00;;;32.70;99.90;;;;;;5062379;28;20236;-57
2023/09/16 07:10:56;;;;;;;6.18;3.60;;;33.00;99.60;;;;;;5064516;28;20217;-56
2023/09/16 07:13:23;;;;;;;4.90;3.25;;;33.20;98.60;;;;;;5066013;28;20208;-55
2023/09/16 07:15:52;;;;;;;3.58;3.28;;;33.40;98.10;;;;;;5065054;28;20204;-56
2023/09/16 07:18:19;;;;;;;3.80;3.40;;;33.40;97.00;;;;;;5063358;28;20224;-57
2023/09/16 07:20:46;;;;;;;3.80;3.25;;;33.20;97.20;;;;;;5063783;28;20233;-56
2023/09/16 07:23:12;;;;;;;4.25;3.40;;;33.20;96.90;;;;;;5065639;28;20204;-58
2023/09/16 07:25:40;;;;;;;3.80;3.40;;;33.20;96.30;;;;;;5065502;28;20208;-57
2023/09/16 07:28:07;;;;;;;4.38;3.10;;;33.20;95.90;;;;;;5065376;28;20228;-57
2023/09/16 07:30:34;;;;;;;3.85;3.30;;;33.10;96.00;;;;;;5065661;28;20215;-58
2023/09/16 07:33:01;;;;;;;3.80;3.50;;;32.80;95.90;;;;;;5062544;28;20201;-57
2023/09/16 07:35:28;;;;;;;3.50;3.20;;;32.50;96.10;;;;;;5061745;28;20263;-56
2023/09/16 07:37:55;;;;;;;4.03;3.63;;;32.20;96.50;;;;;;5063862;28;20259;-57
2023/09/16 07:40:22;;;;;;;4.22;3.13;;;32.00;96.80;;;;;;5065856;28;20216;-58
2023/09/16 07:42:51;;;;;;;3.80;3.40;;;32.00;96.70;;;;;;5064029;28;20240;-57
2023/09/16 07:45:18;;;;;;;3.92;3.60;;;32.00;96.20;;;;;;5061805;28;20202;-56
2023/09/16 07:47:45;;;;;;;4.40;4.00;;;31.50;96.80;;;;;;5080599;22;20255;-58
2023/09/16 07:50:11;;;;;;;4.28;3.88;;;31.20;97.50;;;;;;5065630;28;20320;-59
2023/09/16 07:52:38;;;;;;;4.20;3.80;;;30.70;98.20;;;;;;5065036;28;20208;-56
2023/09/16 07:55:07;;;;;;;4.25;3.85;;;29.90;99.20;;;;;;5065014;28;20201;-59
2023/09/16 07:57:34;;;;;;;4.47;3.70;;;28.80;99.90;;;;;;5064869;28;20231;-57
2023/09/16 08:00:03;;;;;;;4.40;4.00;;;27.80;99.90;;;;;;5062341;28;20267;-59
2023/09/16 08:02:30;;;;;;;5.00;3.78;;;26.80;99.90;;;;;;5061665;28;20201;-57
2023/09/16 08:04:57;;;;;;;5.47;4.00;;;26.00;99.90;;;;;;5063668;28;20217;-58
2023/09/16 08:07:23;;;;;;;5.20;4.50;;;25.20;99.90;;;;;;5064884;28;20236;-57
2023/09/16 08:09:50;;;;;;;4.75;4.10;;;24.60;99.90;;;;;;5063817;28;20232;-57
2023/09/16 08:12:19;;;;;;;5.78;4.57;;;24.10;99.90;;;;;;5061443;28;20267;-59
2023/09/16 08:14:46;;;;;;;4.72;4.25;;;23.80;99.90;;;;;;5061684;28;20205;-58
2023/09/16 08:17:14;;;;;;;4.55;4.15;;;23.60;99.90;;;;;;5064824;28;20231;-58
2023/09/16 08:19:41;;;;;;;6.97;4.07;;;23.40;99.90;;;;;;5064706;28;20212;-56
2023/09/16 08:22:07;;;;;;;4.65;4.25;;;23.30;99.90;;;;;;5053267;28;20244;-59
2023/09/16 08:24:35;;;;;;;4.47;4.05;;;23.20;99.90;;;;;;5060816;28;20209;-56
2023/09/16 08:27:02;;;;;;;4.28;3.88;;;23.10;99.90;;;;;;5063954;28;20223;-57
2023/09/16 08:29:28;;;;;;;5.25;4.18;;;23.10;99.90;;;;;;5064641;28;20255;-57
2023/09/16 08:31:55;;;;;;;5.53;4.32;;;23.00;99.90;;;;;;5062235;28;20201;-56
2023/09/16 08:34:23;;;;;;;4.72;4.32;;;23.00;99.90;;;;;;5060389;28;20659;-57
2023/09/16 08:36:50;;;;;;;4.68;4.28;;;23.00;99.90;;;;;;5061948;28;20214;-58
2023/09/16 08:39:16;;;;;;;5.05;4.50;;;23.00;99.90;;;;;;5064255;28;20312;-57
2023/09/16 08:41:51;;;;;;;4.13;3.83;;;23.10;99.90;;;;;;5064004;28;20213;-57
2023/09/16 08:44:22;;;;;;;4.78;4.35;;;23.10;99.90;;;;;;5060702;28;20208;-58
2023/09/16 08:47:05;;;;;;;4.75;4.25;;;23.10;99.90;;;;;;5061562;28;20213;-56
2023/09/16 08:49:37;;;;;;;5.40;3.97;;;23.20;99.90;;;;;;5063610;28;20221;-59
2023/09/16 08:52:06;;;;;;;4.55;4.07;;;23.30;99.90;;;;;;5061035;28;20581;-56
2023/09/16 08:54:35;;;;;;;4.90;3.78;;;23.50;99.90;;;;;;5060446;28;20226;-56
2023/09/16 08:57:03;;;;;;;5.03;3.70;;;23.50;99.90;;;;;;5063231;28;20214;-60
2023/09/16 08:59:30;;;;;;;4.20;3.72;;;23.60;99.90;;;;;;5063884;28;20243;-56
2023/09/16 09:01:57;;;;;;;5.00;3.72;;;23.60;99.90;;;;;;5061851;28;20684;-57
2023/09/16 09:04:24;;;;;;;4.68;4.18;;;23.60;99.90;;;;;;5060088;28;20206;-56
2023/09/16 09:06:54;;;;;;;4.35;3.60;;;23.70;99.90;;;;;;5061539;28;20229;-56
2023/09/16 09:09:20;;;;;;;4.80;3.78;;;23.80;99.90;;;;;;5063282;28;20603;-58
2023/09/16 09:11:48;;;;;;;6.18;3.40;;;23.90;99.90;;;;;;5062932;28;20208;-57
2023/09/16 09:14:16;;;;;;;3.80;3.50;;;23.90;99.90;;;;;;5060171;28;20675;-57
2023/09/16 09:16:43;;;;;;;4.20;3.85;;;24.10;99.90;;;;;;5061129;28;20206;-56
2023/09/16 09:19:12;;;;;;;6.18;3.75;;;24.20;99.90;;;;;;5063421;28;20514;-56
2023/09/16 09:21:39;;;;;;;5.38;3.70;;;24.40;99.90;;;;;;5063594;28;20704;-58
2023/09/16 09:24:07;;;;;;;11.60;4.32;;;24.50;99.90;;;;;;5059774;28;20206;-55
2023/09/16 09:26:34;;;;;;;3.85;3.50;;;24.60;99.90;;;;;;5060176;28;20213;-56
2023/09/16 09:29:01;;;;;;;4.68;3.55;;;24.80;99.90;;;;;;5062147;28;20257;-56
2023/09/16 09:31:29;;;;;;;3.92;3.53;;;25.00;99.90;;;;;;5063685;28;20219;-56
2023/09/16 09:33:56;;;;;;;4.20;3.80;;;25.20;99.90;;;;;;5061259;28;20674;-56
2023/09/16 09:36:24;;;;;;;5.47;3.63;;;25.30;99.90;;;;;;5060060;28;20212;-57
2023/09/16 09:38:51;;;;;;;3.63;3.30;;;25.40;99.90;;;;;;5060654;28;20253;-58
2023/09/16 09:41:19;;;;;;;4.05;3.25;;;25.40;99.90;;;;;;5063224;28;20583;-56
2023/09/16 09:43:45;;;;;;;3.72;3.40;;;25.50;99.90;;;;;;5062925;28;20208;-56
2023/09/16 09:46:12;;;;;;;4.47;3.47;;;25.60;99.90;;;;;;5060072;28;20206;-56
2023/09/16 09:48:40;;;;;;;3.70;3.40;;;25.60;99.90;;;;;;5059621;28;20725;-60
2023/09/16 09:51:09;;;;;;;4.25;3.47;;;25.70;99.90;;;;;;5063067;28;20208;-55
2023/09/16 09:53:36;;;;;;;3.83;3.53;;;25.80;99.90;;;;;;5055966;28;20229;-56
2023/09/16 09:56:03;;;;;;;3.60;3.15;;;25.80;99.90;;;;;;5062491;28;20213;-56
2023/09/16 09:58:31;;;;;;;3.58;3.28;;;25.90;99.90;;;;;;5056932;28;20228;-57
2023/09/16 10:00:59;;;;;;;3.40;3.10;;;26.00;99.90;;;;;;5061265;28;20237;-55
2023/09/16 10:03:27;;;;;;;2.80;2.60;;;26.20;99.90;;;;;;5062722;28;20248;-57
2023/09/16 10:05:55;;;;;;;3.85;2.70;;;26.40;99.90;;;;;;5061504;28;20693;-58
2023/09/16 10:08:22;;;;;;;2.67;2.47;;;26.50;99.90;;;;;;5059754;28;20229;-56
2023/09/16 10:10:49;;;;;;;3.03;2.72;;;26.60;99.90;;;;;;5059845;28;20307;-56
2023/09/16 10:13:17;;;;;;;5.65;2.90;;;26.70;99.90;;;;;;5062389;28;20209;-56
2023/09/16 10:15:45;;;;;;;2.90;2.60;;;26.80;99.90;;;;;;5062951;28;20310;-58
2023/09/16 10:18:12;;;;;;;3.45;2.90;;;26.90;99.90;;;;;;5063083;28;20626;-58
2023/09/16 10:20:43;;;;;;;3.90;2.75;;;27.00;99.90;;;;;;5062588;28;20674;-57
2023/09/16 10:23:11;;;;;;;2.85;2.65;;;27.20;99.90;;;;;;5051257;28;20590;-61
2023/09/16 10:25:37;;;;;;;2.72;2.53;;;27.30;99.90;;;;;;5059657;28;20217;-59
2023/09/16 10:28:06;;;;;;;3.13;2.70;;;27.40;99.90;;;;;;5061685;28;20229;-59
2023/09/16 10:30:34;;;;;;;2.83;2.60;;;27.40;99.90;;;;;;5062481;28;20228;-59
2023/09/16 10:33:04;;;;;;;2.35;2.15;;;27.40;99.90;;;;;;5060023;28;20205;-58
2023/09/16 10:35:32;;;;;;;3.42;2.55;;;27.50;99.90;;;;;;5059276;28;20209;-59
2023/09/16 10:38:01;;;;;;;2.60;2.40;;;27.60;99.90;;;;;;5061013;28;20614;-60
2023/09/16 10:40:28;;;;;;;2.70;2.22;;;27.70;99.90;;;;;;5062404;28;20586;-59
2023/09/16 10:42:57;;;;;;;2.95;2.38;;;27.70;99.90;;;;;;5060908;28;20205;-59
2023/09/16 10:45:25;;;;;;;2.92;2.30;;;27.80;99.90;;;;;;5058635;28;20205;-59
2023/09/16 10:47:53;;;;;;;2.70;2.17;;;27.90;99.90;;;;;;5059553;28;20753;-58
2023/09/16 10:50:24;;;;;;;2.83;2.53;;;28.00;99.90;;;;;;5062069;28;20634;-59
2023/09/16 10:52:55;;;;;;;2.40;2.20;;;28.20;99.90;;;;;;5061757;28;20215;-60
2023/09/16 10:55:30;;;;;;;3.53;2.40;;;28.20;99.90;;;;;;5058897;28;20296;-59
2023/09/16 10:58:03;;;;;;;3.05;2.20;;;28.30;99.90;;;;;;5060316;28;20237;-60
2023/09/16 11:00:38;;;;;;;2.60;2.40;;;28.30;99.90;;;;;;5062431;28;20201;-59
2023/09/16 11:03:06;;;;;;;2.55;2.35;;;28.30;99.90;;;;;;5059551;28;20250;-60
2023/09/16 11:05:35;;;;;;;2.65;2.38;;;28.40;99.90;;;;;;5058768;28;20198;-58
2023/09/16 11:08:03;;;;;;;2.90;2.15;;;28.60;99.90;;;;;;5060842;28;20221;-58
2023/09/16 11:10:30;;;;;;;3.00;2.22;;;28.70;99.90;;;;;;5062139;28;20217;-58
2023/09/16 11:12:58;;;;;;;2.67;2.33;;;28.70;99.90;;;;;;5060529;28;20305;-60
2023/09/16 11:15:31;;;;;;;2.17;2.00;;;28.80;99.90;;;;;;5059325;28;20288;-62
2023/09/16 11:18:01;;;;;;;2.78;2.58;;;28.90;99.90;;;;;;5061442;28;20214;-63
2023/09/16 11:20:30;;;;;;;5.88;5.20;;;29.00;99.90;;;;;;5062705;28;20208;-62
2023/09/16 11:23:01;;;;;;;4.07;2.90;;;29.00;99.90;;;;;;5061983;28;20269;-62
2023/09/16 11:25:32;;;;;;;4.00;2.40;;;29.10;99.90;;;;;;5059159;28;20224;-62
2023/09/16 11:28:02;;;;;;;2.50;2.30;;;29.20;99.90;;;;;;5060764;28;20302;-61
2023/09/16 11:30:32;;;;;;;3.13;2.10;;;29.30;99.90;;;;;;5062556;28;20221;-63
2023/09/16 11:33:25;;;;;;;2.65;2.08;;;29.30;99.90;;;;;;5063914;28;20259;-62
2023/09/16 11:36:06;;;;;;;3.17;1.90;;;29.40;99.90;;;;;;5062679;28;20202;-63
2023/09/16 11:38:35;;;;;;;2.97;2.28;;;29.50;99.90;;;;;;5065947;28;20262;-62
2023/09/16 11:41:09;;;;;;;2.60;1.95;;;29.60;99.90;;;;;;5063870;28;20205;-62
2023/09/16 11:43:37;;;;;;;2.30;2.10;;;29.60;99.90;;;;;;5062052;28;20625;-63
2023/09/16 11:46:04;;;;;;;2.30;2.10;;;29.60;99.90;;;;;;5064399;28;20213;-62
2023/09/16 11:48:47;;;;;;;2.05;1.85;;;29.60;99.90;;;;;;5065772;28;20228;-62
2023/09/16 11:51:13;;;;;;;2.88;2.20;;;29.70;99.90;;;;;;5054299;28;20226;-62
2023/09/16 11:53:41;;;;;;;2.20;1.90;;;29.70;99.90;;;;;;5062020;28;20206;-62
2023/09/16 11:56:07;;;;;;;2.45;2.10;;;29.70;99.90;;;;;;5064887;28;20215;-61
2023/09/16 11:58:34;;;;;;;2.30;2.10;;;29.70;99.40;;;;;;5065601;28;20728;-62
2023/09/16 12:01:02;;;;;;;2.72;1.50;;;29.90;99.00;;;;;;5064371;28;20213;-61
2023/09/16 12:03:29;;;;;;;2.55;2.00;;;29.90;97.90;;;;;;5062264;28;20205;-60
2023/09/16 12:05:55;;;;;;;1.90;1.75;;;30.00;98.00;;;;;;5063263;28;20205;-60
2023/09/16 12:08:24;;;;;;;2.00;1.80;;;30.00;97.80;;;;;;5065970;28;20258;-61
2023/09/16 12:10:52;;;;;;;1.90;1.80;;;30.00;97.60;;;;;;5064937;28;20694;-60
2023/09/16 12:13:27;;;;;;;2.00;1.80;;;29.90;98.20;;;;;;5062216;28;20202;-66
2023/09/16 12:15:54;;;;;;;2.55;2.35;;;30.00;98.60;;;;;;5062827;28;20251;-61
2023/09/16 12:18:20;;;;;;;3.88;2.20;;;29.90;99.90;;;;;;5064849;28;20217;-60
2023/09/16 12:20:48;;;;;;;2.97;2.58;;;29.90;99.90;;;;;;5065255;28;20200;-62
2023/09/16 12:23:15;;;;;;;2.65;2.35;;;29.90;99.90;;;;;;5053338;28;20209;-59
2023/09/16 12:25:43;;;;;;;2.60;2.20;;;29.90;99.90;;;;;;5061588;28;20271;-62
2023/09/16 12:28:17;;;;;;;2.58;2.38;;;29.90;99.90;;;;;;5063579;28;20217;-59
2023/09/16 12:30:44;;;;;;;2.47;2.28;;;29.90;99.90;;;;;;5064524;28;20217;-60
2023/09/16 12:33:11;;;;;;;2.92;2.30;;;29.90;99.90;;;;;;5061225;28;20388;-60
2023/09/16 12:35:39;;;;;;;2.30;2.10;;;29.90;99.90;;;;;;5061410;28;20217;-61
2023/09/16 12:38:06;;;;;;;3.65;2.22;;;30.10;99.90;;;;;;5063328;28;20705;-60
2023/09/16 12:40:33;;;;;;;2.30;2.00;;;30.20;99.00;;;;;;5064829;28;20193;-60
2023/09/16 12:43:00;;;;;;;2.40;2.20;;;30.20;98.60;;;;;;5062299;28;20201;-60
2023/09/16 12:45:29;;;;;;;2.30;2.10;;;30.10;99.30;;;;;;5061257;28;20213;-59
2023/09/16 12:47:57;;;;;;;2.78;2.10;;;29.90;99.90;;;;;;5061686;28;20237;-59